sensor_id;sensor_type;location;lat;lon;timestamp;pressure;altitude;pressure_sealevel;temperature;humidity
40490;BME280;26196;52.302;10.572;2022-10-13T00:03:44;101161.06;;;13.93;47.89
40490;BME280;26196;52.302;10.572;2022-10-13T00:07:48;101151.53;;;13.89;47.70
40490;BME280;26196;52.302;10.572;2022-10-13T00:11:48;101143.75;;;13.86;47.58
40490;BME280;26196;52.302;10.572;2022-10-13T00:15:48;101142.84;;;13.87;48.05
40490;BME280;26196;52.302;10.572;2022-10-13T00:19:49;101146.44;;;13.85;47.86
40490;BME280;26196;52.302;10.572;2022-10-13T00:23:51;101155.19;;;13.85;47.84
40490;BME280;26196;52.302;10.572;2022-10-13T00:27:51;101135.94;;;13.83;48.36
40490;BME280;26196;52.302;10.572;2022-10-13T00:31:52;101139.53;;;13.81;48.25
40490;BME280;26196;52.302;10.572;2022-10-13T00:35:52;101140.44;;;13.79;48.10
40490;BME280;26196;52.302;10.572;2022-10-13T00:39:53;101131.66;;;13.79;47.48
40490;BME280;26196;52.302;10.572;2022-10-13T00:44:02;101131.78;;;13.76;47.94
40490;BME280;26196;52.302;10.572;2022-10-13T00:48:03;101123.03;;;13.75;48.38
40490;BME280;26196;52.302;10.572;2022-10-13T00:52:04;101123.97;;;13.73;47.85
40490;BME280;26196;52.302;10.572;2022-10-13T00:56:07;101117.09;;;13.69;47.81
40490;BME280;26196;52.302;10.572;2022-10-13T01:00:09;101127.53;;;13.72;48.05
40490;BME280;26196;52.302;10.572;2022-10-13T01:04:10;101126.75;;;13.68;48.00
40490;BME280;26196;52.302;10.572;2022-10-13T01:08:11;101122.44;;;13.66;47.64
40490;BME280;26196;52.302;10.572;2022-10-13T01:33:44;101108.63;;;13.59;48.37
40490;BME280;26196;52.302;10.572;2022-10-13T01:38:07;101105.19;;;13.55;48.58
40490;BME280;26196;52.302;10.572;2022-10-13T01:42:21;101103.59;;;13.51;48.33
40490;BME280;26196;52.302;10.572;2022-10-13T01:46:27;101107.81;;;13.55;48.37
40490;BME280;26196;52.302;10.572;2022-10-13T01:50:29;101095.63;;;13.53;47.92
40490;BME280;26196;52.302;10.572;2022-10-13T01:54:32;101087.81;;;13.51;48.23
40490;BME280;26196;52.302;10.572;2022-10-13T01:58:34;101084.34;;;13.49;48.15
40490;BME280;26196;52.302;10.572;2022-10-13T02:02:43;101077.31;;;13.50;48.27
40490;BME280;26196;52.302;10.572;2022-10-13T02:07:15;101075.59;;;13.49;48.50
40490;BME280;26196;52.302;10.572;2022-10-13T02:11:19;101077.38;;;13.48;47.88
40490;BME280;26196;52.302;10.572;2022-10-13T02:15:23;101080.03;;;13.47;48.43
40490;BME280;26196;52.302;10.572;2022-10-13T02:19:27;101077.47;;;13.45;48.63
40490;BME280;26196;52.302;10.572;2022-10-13T02:23:29;101074.88;;;13.44;48.26
40490;BME280;26196;52.302;10.572;2022-10-13T02:27:30;101065.41;;;13.38;48.39
40490;BME280;26196;52.302;10.572;2022-10-13T02:31:30;101068.78;;;13.43;48.52
40490;BME280;26196;52.302;10.572;2022-10-13T02:35:31;101067.91;;;13.43;48.36
40490;BME280;26196;52.302;10.572;2022-10-13T02:39:32;101061.78;;;13.42;48.70
40490;BME280;26196;52.302;10.572;2022-10-13T02:43:33;101043.53;;;13.38;48.24
40490;BME280;26196;52.302;10.572;2022-10-13T02:47:36;101051.31;;;13.41;48.64
40490;BME280;26196;52.302;10.572;2022-10-13T02:51:36;101031.47;;;13.30;48.88
40490;BME280;26196;52.302;10.572;2022-10-13T02:55:37;101042.56;;;13.40;48.96
40490;BME280;26196;52.302;10.572;2022-10-13T02:59:37;101046.06;;;13.41;48.99
40490;BME280;26196;52.302;10.572;2022-10-13T03:03:38;101046.94;;;13.40;48.82
40490;BME280;26196;52.302;10.572;2022-10-13T03:07:39;101051.34;;;13.39;49.05
40490;BME280;26196;52.302;10.572;2022-10-13T03:11:39;101050.50;;;13.39;49.21
40490;BME280;26196;52.302;10.572;2022-10-13T03:15:40;101044.38;;;13.38;49.26
40490;BME280;26196;52.302;10.572;2022-10-13T03:19:40;101051.44;;;13.36;49.09
40490;BME280;26196;52.302;10.572;2022-10-13T03:23:40;101055.00;;;13.35;49.25
40490;BME280;26196;52.302;10.572;2022-10-13T03:27:41;101042.75;;;13.34;49.02
40490;BME280;26196;52.302;10.572;2022-10-13T03:31:41;101040.97;;;13.34;49.27
40490;BME280;26196;52.302;10.572;2022-10-13T03:35:42;101040.97;;;13.34;49.25
40490;BME280;26196;52.302;10.572;2022-10-13T03:39:42;101022.63;;;13.33;49.08
40490;BME280;26196;52.302;10.572;2022-10-13T03:43:44;101036.63;;;13.33;49.11
40490;BME280;26196;52.302;10.572;2022-10-13T03:47:44;101045.34;;;13.35;49.44
40490;BME280;26196;52.302;10.572;2022-10-13T03:51:45;101042.75;;;13.34;49.46
40490;BME280;26196;52.302;10.572;2022-10-13T03:55:53;101041.91;;;13.32;49.96
40490;BME280;26196;52.302;10.572;2022-10-13T03:59:55;101039.28;;;13.32;49.40
40490;BME280;26196;52.302;10.572;2022-10-13T04:03:57;101026.09;;;13.33;49.45
40490;BME280;26196;52.302;10.572;2022-10-13T04:07:58;101033.13;;;13.33;49.46
40490;BME280;26196;52.302;10.572;2022-10-13T04:11:58;101021.78;;;13.32;49.62
40490;BME280;26196;52.302;10.572;2022-10-13T04:16:03;101013.91;;;13.31;49.80
40490;BME280;26196;52.302;10.572;2022-10-13T04:20:05;101024.34;;;13.34;49.29
40490;BME280;26196;52.302;10.572;2022-10-13T04:24:06;101017.38;;;13.33;49.78
40490;BME280;26196;52.302;10.572;2022-10-13T04:28:07;101022.66;;;13.31;50.10
40490;BME280;26196;52.302;10.572;2022-10-13T04:32:07;101026.09;;;13.33;49.46
40490;BME280;26196;52.302;10.572;2022-10-13T04:36:10;101021.81;;;13.31;49.53
40490;BME280;26196;52.302;10.572;2022-10-13T04:40:11;101031.38;;;13.33;50.15
40490;BME280;26196;52.302;10.572;2022-10-13T04:44:11;101022.63;;;13.33;49.96
40490;BME280;26196;52.302;10.572;2022-10-13T04:48:12;101011.31;;;13.29;49.79
40490;BME280;26196;52.302;10.572;2022-10-13T04:52:13;101013.00;;;13.32;50.34
40490;BME280;26196;52.302;10.572;2022-10-13T04:56:15;101014.75;;;13.33;50.02
40490;BME280;26196;52.302;10.572;2022-10-13T05:00:16;101007.75;;;13.32;50.36
40490;BME280;26196;52.302;10.572;2022-10-13T05:04:17;101013.88;;;13.32;50.15
40490;BME280;26196;52.302;10.572;2022-10-13T05:08:17;101008.63;;;13.32;50.07
40490;BME280;26196;52.302;10.572;2022-10-13T05:12:18;101010.44;;;13.30;50.83
40490;BME280;26196;52.302;10.572;2022-10-13T05:16:19;101016.53;;;13.31;50.79
40490;BME280;26196;52.302;10.572;2022-10-13T05:20:20;101006.03;;;13.31;50.77
40490;BME280;26196;52.302;10.572;2022-10-13T05:24:21;101006.84;;;13.33;50.34
40490;BME280;26196;52.302;10.572;2022-10-13T05:28:30;101003.38;;;13.32;50.28
40490;BME280;26196;52.302;10.572;2022-10-13T05:32:30;101000.72;;;13.32;50.34
40490;BME280;26196;52.302;10.572;2022-10-13T05:36:33;101007.75;;;13.32;49.91
40490;BME280;26196;52.302;10.572;2022-10-13T05:40:33;101001.69;;;13.30;50.77
40490;BME280;26196;52.302;10.572;2022-10-13T05:44:34;100996.44;;;13.30;50.90
40490;BME280;26196;52.302;10.572;2022-10-13T05:48:37;100995.50;;;13.31;50.96
40490;BME280;26196;52.302;10.572;2022-10-13T05:52:37;100987.72;;;13.28;50.71
40490;BME280;26196;52.302;10.572;2022-10-13T05:56:49;100983.28;;;13.30;50.76
40490;BME280;26196;52.302;10.572;2022-10-13T06:00:52;100989.41;;;13.30;50.52
40490;BME280;26196;52.302;10.572;2022-10-13T06:04:55;100960.78;;;13.20;50.72
40490;BME280;26196;52.302;10.572;2022-10-13T06:08:56;100978.88;;;13.30;50.51
40490;BME280;26196;52.302;10.572;2022-10-13T06:12:56;100976.28;;;13.29;51.59
40490;BME280;26196;52.302;10.572;2022-10-13T06:16:57;100978.91;;;13.29;50.92
40490;BME280;26196;52.302;10.572;2022-10-13T06:20:58;100981.53;;;13.29;50.94
40490;BME280;26196;52.302;10.572;2022-10-13T06:24:58;100978.03;;;13.30;50.68
40490;BME280;26196;52.302;10.572;2022-10-13T06:28:59;100978.03;;;13.30;51.03
40490;BME280;26196;52.302;10.572;2022-10-13T06:33:00;100976.28;;;13.29;51.21
40490;BME280;26196;52.302;10.572;2022-10-13T06:37:00;100967.53;;;13.28;50.67
40490;BME280;26196;52.302;10.572;2022-10-13T06:41:02;100964.91;;;13.28;51.59
40490;BME280;26196;52.302;10.572;2022-10-13T06:45:04;100972.78;;;13.30;51.39
40490;BME280;26196;52.302;10.572;2022-10-13T06:49:04;100973.63;;;13.30;51.54
40490;BME280;26196;52.302;10.572;2022-10-13T06:53:05;100970.16;;;13.30;50.73
40490;BME280;26196;52.302;10.572;2022-10-13T06:57:05;100964.09;;;13.26;51.14
40490;BME280;26196;52.302;10.572;2022-10-13T07:01:06;100982.34;;;13.32;51.10
40490;BME280;26196;52.302;10.572;2022-10-13T07:05:07;100977.94;;;13.33;51.24
40490;BME280;26196;52.302;10.572;2022-10-13T07:09:08;100974.50;;;13.29;51.21
40490;BME280;26196;52.302;10.572;2022-10-13T07:13:09;100980.50;;;13.34;51.21
40490;BME280;26196;52.302;10.572;2022-10-13T07:17:10;100974.38;;;13.34;51.35
40490;BME280;26196;52.302;10.572;2022-10-13T07:21:10;100970.94;;;13.32;50.86
40490;BME280;26196;52.302;10.572;2022-10-13T07:25:11;100961.22;;;13.34;51.24
40490;BME280;26196;52.302;10.572;2022-10-13T07:29:11;100975.31;;;13.33;51.26
40490;BME280;26196;52.302;10.572;2022-10-13T07:33:12;100971.72;;;13.35;51.54
40490;BME280;26196;52.302;10.572;2022-10-13T07:37:13;100969.97;;;13.34;51.23
40490;BME280;26196;52.302;10.572;2022-10-13T07:41:14;100969.03;;;13.37;51.03
40490;BME280;26196;52.302;10.572;2022-10-13T07:45:15;100956.78;;;13.36;51.88
40490;BME280;26196;52.302;10.572;2022-10-13T07:49:16;100970.88;;;13.35;51.66
40490;BME280;26196;52.302;10.572;2022-10-13T07:53:17;100976.91;;;13.37;51.53
40490;BME280;26196;52.302;10.572;2022-10-13T07:57:18;100977.78;;;13.38;52.10
40490;BME280;26196;52.302;10.572;2022-10-13T08:01:18;100971.66;;;13.37;52.13
40490;BME280;26196;52.302;10.572;2022-10-13T08:05:20;100978.69;;;13.37;52.09
40490;BME280;26196;52.302;10.572;2022-10-13T08:09:20;100963.69;;;13.40;52.32
40490;BME280;26196;52.302;10.572;2022-10-13T08:13:20;100958.50;;;13.37;52.43
40490;BME280;26196;52.302;10.572;2022-10-13T08:17:21;100961.06;;;13.40;52.77
40490;BME280;26196;52.302;10.572;2022-10-13T08:21:21;100970.63;;;13.43;52.51
40490;BME280;26196;52.302;10.572;2022-10-13T08:25:22;100969.69;;;13.44;53.02
40490;BME280;26196;52.302;10.572;2022-10-13T08:29:22;100963.53;;;13.45;52.72
40490;BME280;26196;52.302;10.572;2022-10-13T08:33:23;100957.28;;;13.49;52.63
40490;BME280;26196;52.302;10.572;2022-10-13T08:37:24;100957.28;;;13.49;52.78
40490;BME280;26196;52.302;10.572;2022-10-13T08:41:31;100969.56;;;13.48;53.20
40490;BME280;26196;52.302;10.572;2022-10-13T08:45:32;100970.38;;;13.50;53.08
40490;BME280;26196;52.302;10.572;2022-10-13T08:49:33;100954.59;;;13.50;53.39
40490;BME280;26196;52.302;10.572;2022-10-13T08:53:36;100923.03;;;13.50;53.25
40490;BME280;26196;52.302;10.572;2022-10-13T08:57:39;100942.25;;;13.52;53.87
40490;BME280;26196;52.302;10.572;2022-10-13T09:01:39;100927.31;;;13.53;53.35
40490;BME280;26196;52.302;10.572;2022-10-13T09:05:49;100926.41;;;13.54;53.37
40490;BME280;26196;52.302;10.572;2022-10-13T09:09:54;100916.84;;;13.51;52.86
40490;BME280;26196;52.302;10.572;2022-10-13T09:14:10;100914.97;;;13.55;53.76
40490;BME280;26196;52.302;10.572;2022-10-13T09:18:12;100927.16;;;13.57;53.36
40490;BME280;26196;52.302;10.572;2022-10-13T09:22:38;100918.38;;;13.59;53.92
40490;BME280;26196;52.302;10.572;2022-10-13T09:26:39;100910.53;;;13.57;54.15
40490;BME280;26196;52.302;10.572;2022-10-13T09:30:42;100917.34;;;13.63;53.35
40490;BME280;26196;52.302;10.572;2022-10-13T09:34:43;100917.34;;;13.63;53.89
40490;BME280;26196;52.302;10.572;2022-10-13T09:39:09;100918.16;;;13.65;52.88
40490;BME280;26196;52.302;10.572;2022-10-13T09:47:25;100915.44;;;13.68;53.00
40490;BME280;26196;52.302;10.572;2022-10-13T09:51:31;100923.22;;;13.71;53.41
40490;BME280;26196;52.302;10.572;2022-10-13T09:55:34;100921.41;;;13.73;53.98
40490;BME280;26196;52.302;10.572;2022-10-13T09:59:40;100924.88;;;13.73;53.61
40490;BME280;26196;52.302;10.572;2022-10-13T10:03:41;100926.63;;;13.74;53.76
40490;BME280;26196;52.302;10.572;2022-10-13T10:07:42;100930.97;;;13.75;53.64
40490;BME280;26196;52.302;10.572;2022-10-13T10:11:45;100931.78;;;13.77;53.28
40490;BME280;26196;52.302;10.572;2022-10-13T10:28:31;100912.31;;;13.82;52.26
40490;BME280;26196;52.302;10.572;2022-10-13T10:41:39;100900.75;;;13.87;52.78
40490;BME280;26196;52.302;10.572;2022-10-13T10:45:46;100900.66;;;13.90;52.46
40490;BME280;26196;52.302;10.572;2022-10-13T10:49:47;100886.56;;;13.91;52.51
40490;BME280;26196;52.302;10.572;2022-10-13T10:53:56;100879.47;;;13.93;52.24
40490;BME280;26196;52.302;10.572;2022-10-13T11:06:49;100870.50;;;13.99;52.95
40490;BME280;26196;52.302;10.572;2022-10-13T11:15:26;100865.09;;;14.04;52.76
40490;BME280;26196;52.302;10.572;2022-10-13T11:19:35;100854.56;;;14.04;53.07
40490;BME280;26196;52.302;10.572;2022-10-13T11:23:43;100852.63;;;14.09;53.41
40490;BME280;26196;52.302;10.572;2022-10-13T11:27:44;100845.53;;;14.11;52.59
40490;BME280;26196;52.302;10.572;2022-10-13T11:31:53;100848.94;;;14.13;53.53
40490;BME280;26196;52.302;10.572;2022-10-13T11:35:53;100835.84;;;14.11;53.46
40490;BME280;26196;52.302;10.572;2022-10-13T11:39:57;100844.38;;;14.18;53.32
40490;BME280;26196;52.302;10.572;2022-10-13T11:57:23;100820.34;;;14.27;53.84
40490;BME280;26196;52.302;10.572;2022-10-13T12:01:24;100813.25;;;14.29;53.96
40490;BME280;26196;52.302;10.572;2022-10-13T12:05:27;100809.66;;;14.32;53.79
40490;BME280;26196;52.302;10.572;2022-10-13T12:09:29;100803.41;;;14.34;55.17
40490;BME280;26196;52.302;10.572;2022-10-13T12:13:32;100804.19;;;14.36;54.27
40490;BME280;26196;52.302;10.572;2022-10-13T12:17:34;100790.91;;;14.39;54.17
40490;BME280;26196;52.302;10.572;2022-10-13T12:21:51;100791.69;;;14.41;54.58
40490;BME280;26196;52.302;10.572;2022-10-13T12:25:53;100787.19;;;14.45;54.94
40490;BME280;26196;52.302;10.572;2022-10-13T12:29:58;100791.47;;;14.48;55.24
40490;BME280;26196;52.302;10.572;2022-10-13T12:34:01;100775.59;;;14.49;54.90
40490;BME280;26196;52.302;10.572;2022-10-13T12:38:05;100778.13;;;14.52;54.81
40490;BME280;26196;52.302;10.572;2022-10-13T12:42:07;100765.88;;;14.51;54.73
40490;BME280;26196;52.302;10.572;2022-10-13T12:46:10;100766.56;;;14.56;54.90
40490;BME280;26196;52.302;10.572;2022-10-13T13:00:21;100777.75;;;14.63;54.83
40490;BME280;26196;52.302;10.572;2022-10-13T13:08:29;100780.13;;;14.69;55.78
40490;BME280;26196;52.302;10.572;2022-10-13T13:12:31;100771.28;;;14.70;55.93
40490;BME280;26196;52.302;10.572;2022-10-13T13:16:32;100765.16;;;14.70;56.15
40490;BME280;26196;52.302;10.572;2022-10-13T13:20:33;100759.66;;;14.76;55.44
40490;BME280;26196;52.302;10.572;2022-10-13T13:24:37;100758.88;;;14.74;55.45
40490;BME280;26196;52.302;10.572;2022-10-13T13:28:42;100741.59;;;14.66;55.05
40490;BME280;26196;52.302;10.572;2022-10-13T13:32:43;100761.19;;;14.81;56.04
40490;BME280;26196;52.302;10.572;2022-10-13T13:36:44;100761.09;;;14.83;55.73
40490;BME280;26196;52.302;10.572;2022-10-13T13:40:45;100758.44;;;14.84;55.72
40490;BME280;26196;52.302;10.572;2022-10-13T13:44:45;100750.38;;;14.87;56.00
40490;BME280;26196;52.302;10.572;2022-10-13T13:48:46;100751.19;;;14.90;56.07
40490;BME280;26196;52.302;10.572;2022-10-13T13:52:48;100739.72;;;14.91;55.34
40490;BME280;26196;52.302;10.572;2022-10-13T13:56:49;100745.00;;;14.91;55.74
40490;BME280;26196;52.302;10.572;2022-10-13T14:00:50;100745.66;;;14.96;55.10
40490;BME280;26196;52.302;10.572;2022-10-13T14:04:50;100736.84;;;14.97;56.21
40490;BME280;26196;52.302;10.572;2022-10-13T14:08:52;100745.53;;;14.99;55.81
40490;BME280;26196;52.302;10.572;2022-10-13T14:12:53;100741.91;;;15.01;56.46
40490;BME280;26196;52.302;10.572;2022-10-13T14:16:54;100734.75;;;15.05;56.09
40490;BME280;26196;52.302;10.572;2022-10-13T14:20:55;100732.91;;;15.07;56.00
40490;BME280;26196;52.302;10.572;2022-10-13T14:24:56;100743.31;;;15.10;56.17
40490;BME280;26196;52.302;10.572;2022-10-13T14:28:57;100728.41;;;15.09;56.05
40490;BME280;26196;52.302;10.572;2022-10-13T14:32:57;100730.94;;;15.12;55.87
40490;BME280;26196;52.302;10.572;2022-10-13T14:36:58;100720.38;;;15.12;55.57
40490;BME280;26196;52.302;10.572;2022-10-13T14:41:03;100731.66;;;15.16;55.73
40490;BME280;26196;52.302;10.572;2022-10-13T14:45:04;100716.63;;;15.18;55.40
40490;BME280;26196;52.302;10.572;2022-10-13T14:49:06;100720.09;;;15.18;55.51
40490;BME280;26196;52.302;10.572;2022-10-13T14:53:07;100717.34;;;15.21;55.75
40490;BME280;26196;52.302;10.572;2022-10-13T14:57:10;100715.50;;;15.23;55.76
40490;BME280;26196;52.302;10.572;2022-10-13T15:01:16;100720.69;;;15.25;55.83
40490;BME280;26196;52.302;10.572;2022-10-13T15:05:17;100714.56;;;15.24;55.72
40490;BME280;26196;52.302;10.572;2022-10-13T15:09:18;100724.91;;;15.29;55.49
40490;BME280;26196;52.302;10.572;2022-10-13T15:18:15;100723.00;;;15.32;55.78
40490;BME280;26196;52.302;10.572;2022-10-13T15:22:16;100714.19;;;15.34;55.91
40490;BME280;26196;52.302;10.572;2022-10-13T15:26:18;100702.31;;;15.23;55.96
40490;BME280;26196;52.302;10.572;2022-10-13T15:30:19;100730.72;;;15.37;56.03
40490;BME280;26196;52.302;10.572;2022-10-13T15:34:19;100724.44;;;15.40;55.75
40490;BME280;26196;52.302;10.572;2022-10-13T15:38:20;100721.81;;;15.40;55.87
40490;BME280;26196;52.302;10.572;2022-10-13T15:42:21;100726.94;;;15.43;56.24
40490;BME280;26196;52.302;10.572;2022-10-13T15:46:22;100719.91;;;15.43;56.13
40490;BME280;26196;52.302;10.572;2022-10-13T15:50:25;100711.06;;;15.44;56.29
40490;BME280;26196;52.302;10.572;2022-10-13T15:54:26;100696.56;;;15.34;56.60
40490;BME280;26196;52.302;10.572;2022-10-13T15:58:26;100718.78;;;15.49;56.56
40490;BME280;26196;52.302;10.572;2022-10-13T16:02:27;100715.22;;;15.50;56.65
40490;BME280;26196;52.302;10.572;2022-10-13T16:06:27;100709.94;;;15.50;56.53
40490;BME280;26196;52.302;10.572;2022-10-13T16:10:27;100713.38;;;15.52;56.25
40490;BME280;26196;52.302;10.572;2022-10-13T16:14:28;100713.28;;;15.53;56.73
40490;BME280;26196;52.302;10.572;2022-10-13T16:18:30;100711.56;;;15.52;56.47
40490;BME280;26196;52.302;10.572;2022-10-13T16:22:31;100710.72;;;15.52;56.44
40490;BME280;26196;52.302;10.572;2022-10-13T16:26:31;100713.06;;;15.58;56.77
40490;BME280;26196;52.302;10.572;2022-10-13T16:30:35;100705.16;;;15.58;56.82
40490;BME280;26196;52.302;10.572;2022-10-13T16:34:35;100708.44;;;15.63;56.49
40490;BME280;26196;52.302;10.572;2022-10-13T16:38:36;100709.44;;;15.61;56.61
40490;BME280;26196;52.302;10.572;2022-10-13T16:42:37;100711.94;;;15.64;56.27
40490;BME280;26196;52.302;10.572;2022-10-13T16:46:37;100708.53;;;15.62;56.28
40490;BME280;26196;52.302;10.572;2022-10-13T16:50:39;100705.75;;;15.65;56.38
40490;BME280;26196;52.302;10.572;2022-10-13T16:54:39;100701.38;;;15.64;56.64
40490;BME280;26196;52.302;10.572;2022-10-13T16:58:40;100710.94;;;15.66;56.69
40490;BME280;26196;52.302;10.572;2022-10-13T17:02:44;100697.00;;;15.64;56.45
40490;BME280;26196;52.302;10.572;2022-10-13T17:06:44;100710.94;;;15.66;57.18
40490;BME280;26196;52.302;10.572;2022-10-13T17:10:45;100711.75;;;15.68;57.46
40490;BME280;26196;52.302;10.572;2022-10-13T17:14:47;100704.72;;;15.69;58.03
40490;BME280;26196;52.302;10.572;2022-10-13T17:18:48;100702.81;;;15.72;57.99
40490;BME280;26196;52.302;10.572;2022-10-13T17:22:48;100707.00;;;15.77;59.25
40490;BME280;26196;52.302;10.572;2022-10-13T17:26:49;100703.47;;;15.78;58.93
40490;BME280;26196;52.302;10.572;2022-10-13T17:31:00;100715.72;;;15.79;59.13
40490;BME280;26196;52.302;10.572;2022-10-13T17:35:01;100714.78;;;15.80;58.80
40490;BME280;26196;52.302;10.572;2022-10-13T17:39:07;100721.78;;;15.81;58.32
40490;BME280;26196;52.302;10.572;2022-10-13T17:43:07;100710.38;;;15.80;59.05
40490;BME280;26196;52.302;10.572;2022-10-13T17:47:08;100719.84;;;15.84;59.85
40490;BME280;26196;52.302;10.572;2022-10-13T17:51:11;100718.06;;;15.85;59.77
40490;BME280;26196;52.302;10.572;2022-10-13T17:55:12;100712.72;;;15.86;59.29
40490;BME280;26196;52.302;10.572;2022-10-13T17:59:15;100707.44;;;15.86;59.84
40490;BME280;26196;52.302;10.572;2022-10-13T18:03:16;100710.03;;;15.88;59.47
40490;BME280;26196;52.302;10.572;2022-10-13T18:07:17;100717.94;;;15.88;59.13
40490;BME280;26196;52.302;10.572;2022-10-13T18:11:19;100705.50;;;15.90;58.43
40490;BME280;26196;52.302;10.572;2022-10-13T18:15:20;100710.03;;;15.88;58.88
40490;BME280;26196;52.302;10.572;2022-10-13T18:19:21;100705.44;;;15.91;59.79
40490;BME280;26196;52.302;10.572;2022-10-13T18:23:22;100702.75;;;15.93;59.39
40490;BME280;26196;52.302;10.572;2022-10-13T18:27:22;100696.84;;;15.88;59.11
40490;BME280;26196;52.302;10.572;2022-10-13T18:31:27;100701.03;;;15.92;58.99
40490;BME280;26196;52.302;10.572;2022-10-13T18:35:28;100697.59;;;15.90;58.72
40490;BME280;26196;52.302;10.572;2022-10-13T18:39:29;100709.72;;;15.94;58.85
40490;BME280;26196;52.302;10.572;2022-10-13T18:43:30;100702.75;;;15.93;58.69
40490;BME280;26196;52.302;10.572;2022-10-13T18:47:30;100697.03;;;15.83;58.96
40490;BME280;26196;52.302;10.572;2022-10-13T18:51:31;100701.88;;;15.92;58.70
40490;BME280;26196;52.302;10.572;2022-10-13T18:55:33;100712.31;;;15.95;58.73
40490;BME280;26196;52.302;10.572;2022-10-13T18:59:35;100706.25;;;15.93;58.40
40490;BME280;26196;52.302;10.572;2022-10-13T19:03:39;100707.88;;;15.96;58.69
40490;BME280;26196;52.302;10.572;2022-10-13T19:07:40;100705.25;;;15.96;58.76
40490;BME280;26196;52.302;10.572;2022-10-13T19:11:40;100703.59;;;15.93;59.22
40490;BME280;26196;52.302;10.572;2022-10-13T19:15:41;100699.97;;;15.96;58.31
40490;BME280;26196;52.302;10.572;2022-10-13T19:19:42;100706.94;;;15.97;58.42
40490;BME280;26196;52.302;10.572;2022-10-13T19:23:42;100704.31;;;15.97;58.21
40490;BME280;26196;52.302;10.572;2022-10-13T19:27:43;100708.75;;;15.96;58.32
40490;BME280;26196;52.302;10.572;2022-10-13T19:31:44;100703.50;;;15.95;59.08
40490;BME280;26196;52.302;10.572;2022-10-13T19:35:47;100701.66;;;15.97;59.04
40490;BME280;26196;52.302;10.572;2022-10-13T19:39:47;100703.47;;;15.96;59.47
40490;BME280;26196;52.302;10.572;2022-10-13T19:43:48;100706.09;;;15.96;59.27
40490;BME280;26196;52.302;10.572;2022-10-13T19:47:49;100705.31;;;15.94;59.25
40490;BME280;26196;52.302;10.572;2022-10-13T19:51:50;100707.88;;;15.96;60.59
40490;BME280;26196;52.302;10.572;2022-10-13T19:55:51;100714.97;;;15.95;59.82
40490;BME280;26196;52.302;10.572;2022-10-13T19:59:51;100713.16;;;15.96;59.85
40490;BME280;26196;52.302;10.572;2022-10-13T20:03:53;100715.88;;;15.94;59.47
40490;BME280;26196;52.302;10.572;2022-10-13T20:07:54;100707.09;;;15.94;60.75
40490;BME280;26196;52.302;10.572;2022-10-13T20:11:54;100707.16;;;15.92;60.68
40490;BME280;26196;52.302;10.572;2022-10-13T20:15:55;100715.00;;;15.94;60.85
40490;BME280;26196;52.302;10.572;2022-10-13T20:19:55;100712.56;;;15.89;61.16
40490;BME280;26196;52.302;10.572;2022-10-13T20:23:56;100717.81;;;15.91;61.02
40490;BME280;26196;52.302;10.572;2022-10-13T20:27:57;100723.13;;;15.89;60.60
40490;BME280;26196;52.302;10.572;2022-10-13T20:31:59;100718.81;;;15.88;60.49
40490;BME280;26196;52.302;10.572;2022-10-13T20:36:01;100711.88;;;15.86;60.70
40490;BME280;26196;52.302;10.572;2022-10-13T20:40:02;100719.72;;;15.87;60.63
40490;BME280;26196;52.302;10.572;2022-10-13T20:44:03;100726.72;;;15.88;60.55
40490;BME280;26196;52.302;10.572;2022-10-13T20:48:03;100725.06;;;15.86;60.13
40490;BME280;26196;52.302;10.572;2022-10-13T20:52:04;100722.59;;;15.83;60.41
40490;BME280;26196;52.302;10.572;2022-10-13T20:56:05;100723.34;;;15.85;60.17
40490;BME280;26196;52.302;10.572;2022-10-13T21:00:07;100719.94;;;15.83;60.08
40490;BME280;26196;52.302;10.572;2022-10-13T21:04:07;100722.63;;;15.81;59.11
40490;BME280;26196;52.302;10.572;2022-10-13T21:08:08;100720.94;;;15.80;59.78
40490;BME280;26196;52.302;10.572;2022-10-13T21:12:08;100728.84;;;15.80;59.34
40490;BME280;26196;52.302;10.572;2022-10-13T21:16:14;100735.88;;;15.80;59.33
40490;BME280;26196;52.302;10.572;2022-10-13T21:20:15;100727.13;;;15.79;59.12
40490;BME280;26196;52.302;10.572;2022-10-13T21:24:15;100718.50;;;15.75;59.21
40490;BME280;26196;52.302;10.572;2022-10-13T21:28:16;100721.13;;;15.75;59.31
40490;BME280;26196;52.302;10.572;2022-10-13T21:32:16;100716.75;;;15.74;59.03
40490;BME280;26196;52.302;10.572;2022-10-13T21:36:20;100710.72;;;15.72;58.70
40490;BME280;26196;52.302;10.572;2022-10-13T21:40:20;100698.69;;;15.65;59.14
40490;BME280;26196;52.302;10.572;2022-10-13T21:44:21;100702.72;;;15.74;59.00
40490;BME280;26196;52.302;10.572;2022-10-13T21:48:22;100702.06;;;15.69;58.89
40490;BME280;26196;52.302;10.572;2022-10-13T21:52:22;100702.88;;;15.71;59.13
40490;BME280;26196;52.302;10.572;2022-10-13T21:56:24;100705.50;;;15.71;59.03
40490;BME280;26196;52.302;10.572;2022-10-13T22:00:25;100708.22;;;15.69;58.77
40490;BME280;26196;52.302;10.572;2022-10-13T22:04:25;100708.41;;;15.65;58.64
40490;BME280;26196;52.302;10.572;2022-10-13T22:08:26;100707.41;;;15.67;58.44
40490;BME280;26196;52.302;10.572;2022-10-13T22:12:26;100712.69;;;15.67;58.84
40490;BME280;26196;52.302;10.572;2022-10-13T22:16:35;100699.53;;;15.66;58.58
40490;BME280;26196;52.302;10.572;2022-10-13T22:20:37;100687.28;;;15.65;58.40
40490;BME280;26196;52.302;10.572;2022-10-13T22:24:37;100690.91;;;15.62;58.34